createdAt,value
2018-05-25T00:00:52.878Z,95.20
2018-05-25T00:03:21.770Z,57.97
2018-05-25T00:05:50.599Z,181.17
2018-05-25T00:08:19.444Z,189.57
2018-05-25T00:10:48.279Z,191.17
2018-05-25T00:13:17.141Z,90.57
2018-05-25T00:15:45.965Z,37.97
2018-05-25T00:18:14.839Z,41.97
2018-05-25T00:20:43.668Z,203.37
2018-05-25T00:23:12.520Z,189.00
2018-05-25T00:25:41.348Z,67.10
2018-05-25T00:28:10.207Z,29.60
2018-05-25T00:30:39.052Z,31.77
2018-05-25T00:33:07.928Z,61.43
2018-05-25T00:35:36.884Z,64.47
2018-05-25T00:38:05.861Z,68.67
2018-05-25T00:40:34.836Z,43.70
2018-05-25T00:43:03.784Z,72.13
2018-05-25T00:45:32.724Z,50.10
2018-05-25T00:48:01.639Z,31.00
2018-05-25T00:50:30.565Z,33.40
2018-05-25T00:52:59.480Z,34.43
2018-05-25T00:55:34.276Z,35.67
2018-05-25T00:58:03.183Z,32.67
2018-05-25T01:00:32.088Z,36.50
2018-05-25T01:03:00.993Z,35.13
2018-05-25T01:05:30.008Z,36.80
2018-05-25T01:07:58.830Z,41.10
2018-05-25T01:10:27.972Z,36.00
2018-05-25T01:12:56.803Z,37.90
2018-05-25T01:15:25.652Z,36.00
2018-05-25T01:17:54.459Z,56.33
2018-05-25T01:20:23.310Z,133.23
2018-05-25T01:22:52.135Z,56.70
2018-05-25T01:25:20.984Z,31.10
2018-05-25T01:27:49.803Z,43.33
2018-05-25T01:30:18.677Z,66.00
2018-05-25T01:32:47.503Z,44.43
2018-05-25T01:35:16.332Z,58.30
2018-05-25T01:37:45.177Z,50.17
2018-05-25T01:40:14.873Z,43.40
2018-05-25T01:42:43.729Z,55.33
2018-05-25T01:45:12.572Z,51.03
2018-05-25T01:47:41.416Z,55.23
2018-05-25T01:50:10.233Z,111.00
2018-05-25T01:52:39.105Z,116.43
2018-05-25T01:55:08.187Z,104.63
2018-05-25T01:57:37.337Z,72.57
2018-05-25T02:00:06.317Z,67.70
2018-05-25T02:02:35.163Z,48.10
2018-05-25T02:05:03.984Z,50.20
2018-05-25T02:07:33.037Z,46.47
2018-05-25T02:10:02.173Z,82.63
2018-05-25T02:12:31.017Z,52.37
2018-05-25T02:14:59.838Z,50.33
2018-05-25T02:17:28.687Z,55.27
2018-05-25T02:19:57.499Z,68.07
2018-05-25T02:22:26.394Z,110.47
2018-05-25T02:24:55.217Z,84.90
2018-05-25T02:27:24.067Z,42.60
2018-05-25T02:29:52.960Z,45.40
2018-05-25T02:32:21.767Z,37.50
2018-05-25T02:34:50.609Z,35.83
2018-05-25T02:37:19.436Z,233.37
2018-05-25T02:39:48.294Z,114.90
2018-05-25T02:42:17.112Z,58.70
2018-05-25T02:44:46.023Z,31.53
2018-05-25T02:47:14.851Z,40.93
2018-05-25T02:49:43.716Z,75.77
2018-05-25T02:52:12.541Z,21.77
2018-05-25T02:54:41.396Z,17.87
2018-05-25T02:57:10.262Z,21.87
2018-05-25T02:59:39.076Z,23.73
2018-05-25T03:02:07.925Z,26.27
2018-05-25T03:04:36.781Z,29.63
2018-05-25T03:07:05.600Z,37.17
2018-05-25T03:09:34.452Z,30.00
2018-05-25T03:12:03.269Z,33.80
2018-05-25T03:14:32.111Z,41.13
2018-05-25T03:17:01.011Z,34.13
2018-05-25T03:19:29.791Z,35.80
2018-05-25T03:21:58.628Z,41.83
2018-05-25T03:24:27.444Z,36.17
2018-05-25T03:26:56.288Z,41.53
2018-05-25T03:29:25.112Z,31.40
2018-05-25T03:31:53.945Z,34.27
2018-05-25T03:34:22.773Z,50.80
2018-05-25T03:36:51.617Z,46.20
2018-05-25T03:39:20.430Z,43.70
2018-05-25T03:41:49.320Z,47.20
2018-05-25T03:44:18.161Z,50.60
2018-05-25T03:46:47.004Z,37.30
2018-05-25T03:49:15.835Z,45.40
2018-05-25T03:51:44.685Z,44.43
2018-05-25T03:54:13.531Z,30.50
2018-05-25T03:56:42.359Z,45.93
2018-05-25T03:59:17.026Z,40.13
2018-05-25T04:01:51.691Z,48.43
2018-05-25T04:04:20.552Z,57.77
2018-05-25T04:06:49.352Z,79.93
2018-05-25T04:09:18.200Z,61.07
2018-05-25T04:11:47.046Z,53.60
2018-05-25T04:14:16.099Z,68.60
2018-05-25T04:16:45.212Z,88.73
2018-05-25T04:19:14.045Z,81.70
2018-05-25T04:21:42.872Z,65.27
2018-05-25T04:24:11.714Z,59.27
2018-05-25T04:26:40.530Z,51.17
2018-05-25T04:29:09.381Z,59.07
2018-05-25T04:31:38.497Z,84.53
2018-05-25T04:34:07.406Z,82.40
2018-05-25T04:36:36.510Z,76.70
2018-05-25T04:39:05.660Z,61.90
2018-05-25T04:41:34.772Z,70.83
2018-05-25T04:44:03.912Z,80.80
2018-05-25T04:46:33.023Z,78.00
2018-05-25T04:49:02.177Z,86.03
2018-05-25T04:51:31.298Z,149.60
2018-05-25T04:54:00.425Z,57.50
2018-05-25T04:56:29.564Z,70.43
2018-05-25T04:58:58.710Z,95.20
2018-05-25T05:01:27.867Z,100.10
2018-05-25T05:03:56.980Z,101.93
2018-05-25T05:06:25.828Z,82.03
2018-05-25T05:08:54.649Z,52.83
2018-05-25T05:11:23.504Z,49.27
2018-05-25T05:13:52.323Z,49.37
2018-05-25T05:16:21.184Z,44.27
2018-05-25T05:18:50.011Z,41.57
2018-05-25T05:21:18.857Z,32.07
2018-05-25T05:23:47.714Z,37.93
2018-05-25T05:26:16.547Z,28.93
2018-05-25T05:28:45.373Z,24.50
2018-05-25T05:31:14.223Z,23.50
2018-05-25T05:33:43.086Z,32.10
2018-05-25T05:36:11.860Z,33.00
2018-05-25T05:38:40.719Z,32.37
2018-05-25T05:41:09.551Z,42.67
2018-05-25T05:43:38.388Z,29.40
2018-05-25T05:46:07.239Z,43.57
2018-05-25T05:48:36.095Z,33.27
2018-05-25T05:51:04.915Z,40.67
2018-05-25T05:53:33.792Z,35.27
2018-05-25T05:56:02.611Z,41.10
2018-05-25T05:58:31.465Z,60.30
2018-05-25T06:01:00.406Z,56.47
2018-05-25T06:03:29.224Z,54.90
2018-05-25T06:08:33.556Z,57.60
2018-05-25T06:11:02.402Z,51.73
2018-05-25T06:13:31.247Z,60.53
2018-05-25T06:16:00.097Z,51.17
2018-05-25T06:18:28.929Z,48.07
2018-05-25T06:20:57.737Z,45.60
2018-05-25T06:23:26.591Z,45.60
2018-05-25T06:25:55.434Z,53.90
2018-05-25T06:28:24.257Z,45.23
2018-05-25T06:30:53.100Z,50.60
2018-05-25T06:33:21.925Z,42.17
2018-05-25T06:35:50.783Z,54.80
2018-05-25T06:38:19.641Z,45.40
2018-05-25T06:40:48.492Z,42.07
2018-05-25T06:43:17.300Z,40.13
2018-05-25T06:45:46.141Z,48.37
2018-05-25T06:48:14.989Z,44.43
2018-05-25T06:50:43.906Z,45.00
2018-05-25T06:53:12.799Z,44.03
2018-05-25T06:55:41.622Z,50.63
2018-05-25T06:58:10.461Z,51.10
2018-05-25T07:00:39.281Z,38.83
2018-05-25T07:03:08.110Z,43.90
2018-05-25T07:05:36.957Z,47.93
2018-05-25T07:08:05.919Z,51.17
2018-05-25T07:10:34.764Z,51.20
2018-05-25T07:13:03.587Z,54.97
2018-05-25T07:15:32.448Z,48.60
2018-05-25T07:18:01.263Z,46.13
2018-05-25T07:20:30.106Z,45.17
2018-05-25T07:22:58.903Z,53.10
2018-05-25T07:25:28.059Z,47.40
2018-05-25T07:27:57.185Z,53.50
2018-05-25T07:30:26.336Z,57.93
2018-05-25T07:32:55.455Z,53.93
2018-05-25T07:35:24.612Z,62.03
2018-05-25T07:37:53.745Z,63.17
2018-05-25T07:40:22.873Z,64.47
2018-05-25T07:42:52.003Z,65.83
2018-05-25T07:45:20.884Z,67.93
2018-05-25T07:47:50.006Z,78.90
2018-05-25T07:50:19.157Z,84.60
2018-05-25T07:52:48.274Z,98.53
2018-05-25T07:55:17.437Z,103.83
2018-05-25T07:57:46.299Z,104.53
2018-05-25T08:00:15.301Z,101.60
2018-05-25T08:02:44.249Z,100.80
2018-05-25T08:05:13.401Z,87.13
2018-05-25T08:07:42.410Z,93.20
2018-05-25T08:10:11.522Z,97.33
2018-05-25T08:12:40.390Z,91.73
2018-05-25T08:15:09.212Z,84.13
2018-05-25T08:17:38.356Z,79.73
2018-05-25T08:20:07.489Z,78.00
2018-05-25T08:22:36.641Z,69.20
2018-05-25T08:25:05.668Z,70.57
2018-05-25T08:27:34.522Z,69.60
2018-05-25T08:30:03.348Z,64.43
2018-05-25T08:32:32.496Z,83.20
2018-05-25T08:35:01.609Z,50.67
2018-05-25T08:37:30.794Z,53.90
2018-05-25T08:39:59.946Z,53.37
2018-05-25T08:42:29.099Z,42.73
2018-05-25T08:44:58.220Z,43.83
2018-05-25T08:47:27.220Z,38.03
2018-05-25T08:49:56.049Z,37.73
2018-05-25T08:52:25.173Z,28.30
2018-05-25T08:54:54.028Z,28.20
2018-05-25T08:57:23.112Z,25.90
2018-05-25T08:59:52.284Z,21.87
2018-05-25T09:02:21.099Z,43.03
2018-05-25T09:04:49.941Z,25.47
2018-05-25T09:07:19.049Z,32.40
2018-05-25T09:09:48.222Z,20.87
2018-05-25T09:12:17.359Z,17.73
2018-05-25T09:14:46.388Z,18.40
2018-05-25T09:17:15.500Z,22.63
2018-05-25T09:19:44.360Z,16.80
2018-05-25T09:22:13.327Z,18.53
2018-05-25T09:24:42.368Z,43.77
2018-05-25T09:27:11.230Z,18.00
2018-05-25T09:29:40.352Z,24.07
2018-05-25T09:32:09.501Z,27.53
2018-05-25T09:34:38.636Z,12.13
2018-05-25T09:37:07.481Z,19.93
2018-05-25T09:39:36.313Z,10.90
2018-05-25T09:42:05.521Z,11.00
2018-05-25T09:44:34.628Z,7.00
2018-05-25T09:47:03.767Z,10.43
2018-05-25T09:49:32.912Z,10.10
2018-05-25T09:52:02.525Z,12.97
2018-05-25T09:54:31.637Z,10.07
2018-05-25T09:57:00.788Z,8.40
2018-05-25T09:59:29.608Z,8.33
2018-05-25T10:01:58.807Z,10.90
2018-05-25T10:04:27.945Z,9.20
2018-05-25T10:06:57.104Z,11.50
2018-05-25T10:09:26.244Z,12.10
2018-05-25T10:11:55.395Z,13.10
2018-05-25T10:14:24.548Z,10.47
2018-05-25T10:16:53.676Z,8.67
2018-05-25T10:19:22.903Z,9.30
2018-05-25T10:21:52.048Z,8.83
2018-05-25T10:24:21.156Z,11.20
2018-05-25T10:26:50.291Z,10.63
2018-05-25T10:29:19.429Z,11.00
2018-05-25T10:31:48.580Z,13.47
2018-05-25T10:34:17.728Z,17.43
2018-05-25T10:36:46.890Z,11.30
2018-05-25T10:39:15.731Z,10.47
2018-05-25T10:41:44.851Z,9.67
2018-05-25T10:44:14.014Z,8.63
2018-05-25T10:46:43.174Z,10.60
2018-05-25T10:49:12.307Z,12.87
2018-05-25T10:51:41.459Z,9.30
2018-05-25T10:54:10.597Z,7.53
2018-05-25T10:56:39.748Z,9.37
2018-05-25T10:59:08.571Z,5.97
2018-05-25T11:01:37.406Z,5.27
2018-05-25T11:04:06.229Z,6.17
2018-05-25T11:06:35.378Z,5.80
2018-05-25T11:09:05.129Z,5.10
2018-05-25T11:11:34.250Z,5.87
2018-05-25T11:14:03.088Z,5.80
2018-05-25T11:16:31.921Z,4.93
2018-05-25T11:19:00.765Z,3.57
2018-05-25T11:21:29.906Z,4.03
2018-05-25T11:23:59.012Z,4.00
2018-05-25T11:26:28.261Z,4.97
2018-05-25T11:28:57.109Z,5.13
2018-05-25T11:31:25.929Z,4.90
2018-05-25T11:33:54.772Z,3.60
2018-05-25T11:36:23.850Z,8.83
2018-05-25T11:38:53.011Z,5.13
2018-05-25T11:41:22.156Z,4.23
2018-05-25T11:43:51.298Z,5.03
2018-05-25T11:46:20.401Z,5.27
2018-05-25T11:48:49.242Z,5.83
2018-05-25T11:51:18.395Z,5.07
2018-05-25T11:53:47.236Z,6.07
2018-05-25T11:56:16.213Z,4.13
2018-05-25T11:58:45.045Z,3.60
2018-05-25T12:01:13.860Z,3.70
2018-05-25T12:03:42.692Z,3.30
2018-05-25T12:06:11.713Z,4.43
2018-05-25T12:08:40.955Z,5.13
2018-05-25T12:11:10.069Z,4.30
2018-05-25T12:13:39.210Z,5.27
2018-05-25T12:16:08.330Z,3.90
2018-05-25T12:18:37.485Z,5.27
2018-05-25T12:21:06.598Z,4.43
2018-05-25T12:23:35.486Z,6.57
2018-05-25T12:26:04.320Z,10.63
2018-05-25T12:28:33.563Z,8.30
2018-05-25T12:31:02.401Z,6.73
2018-05-25T12:33:31.509Z,4.53
2018-05-25T12:36:00.378Z,6.10
2018-05-25T12:38:29.197Z,5.90
2018-05-25T12:40:58.000Z,3.60
2018-05-25T12:43:26.831Z,3.40
2018-05-25T12:45:55.676Z,6.83
2018-05-25T12:48:24.484Z,6.50
2018-05-25T12:50:53.345Z,5.20
2018-05-25T12:53:22.149Z,4.40
2018-05-25T12:55:50.999Z,4.23
2018-05-25T12:58:19.823Z,4.40
2018-05-25T13:00:48.636Z,4.33
2018-05-25T13:03:17.479Z,3.23
2018-05-25T13:05:46.469Z,4.83
2018-05-25T13:08:15.597Z,2.83
2018-05-25T13:10:44.695Z,4.07
2018-05-25T13:13:13.858Z,12.60
2018-05-25T13:15:43.002Z,8.57
2018-05-25T13:18:12.152Z,6.73
2018-05-25T13:20:41.296Z,4.83
2018-05-25T13:23:10.420Z,6.17
2018-05-25T13:25:39.621Z,5.83
2018-05-25T13:28:08.728Z,4.57
2018-05-25T13:30:37.908Z,3.83
2018-05-25T13:33:07.021Z,3.23
2018-05-25T13:35:36.169Z,5.30
2018-05-25T13:38:05.279Z,4.43
2018-05-25T13:40:34.245Z,12.57
2018-05-25T13:43:03.167Z,3.37
2018-05-25T13:45:32.043Z,4.57
2018-05-25T13:48:00.922Z,3.77
2018-05-25T13:50:29.729Z,4.10
2018-05-25T13:52:58.592Z,3.90
2018-05-25T13:55:27.414Z,3.80
2018-05-25T13:57:56.307Z,3.57
2018-05-25T14:00:25.264Z,3.37
2018-05-25T14:02:54.168Z,3.90
2018-05-25T14:05:22.988Z,4.33
2018-05-25T14:07:51.824Z,3.90
2018-05-25T14:10:20.643Z,3.90
2018-05-25T14:12:49.494Z,3.17
2018-05-25T14:15:18.319Z,3.60
2018-05-25T14:17:47.181Z,14.23
2018-05-25T14:20:16.005Z,2.80
2018-05-25T14:22:44.840Z,10.70
2018-05-25T14:25:13.665Z,3.40
2018-05-25T14:27:42.538Z,4.27
2018-05-25T14:30:11.717Z,7.17
2018-05-25T14:32:40.832Z,19.93
2018-05-25T14:35:09.985Z,12.90
2018-05-25T14:37:39.119Z,2.83
2018-05-25T14:40:08.047Z,4.53
2018-05-25T14:42:35.519Z,9.67
2018-05-25T14:45:03.004Z,4.40
2018-05-25T14:47:30.514Z,5.27
2018-05-25T14:49:58.748Z,4.43
2018-05-25T14:52:26.221Z,5.70
2018-05-25T14:54:53.717Z,4.07
2018-05-25T14:57:21.218Z,6.13
2018-05-25T14:59:48.710Z,22.10
2018-05-25T15:02:16.981Z,9.50
2018-05-25T15:04:44.483Z,2.83
2018-05-25T15:07:13.628Z,2.50
2018-05-25T15:09:42.789Z,5.30
2018-05-25T15:12:11.589Z,2.83
2018-05-25T15:14:40.461Z,5.70
2018-05-25T15:17:09.292Z,6.37
2018-05-25T15:19:38.460Z,4.47
2018-05-25T15:22:07.988Z,4.77
2018-05-25T15:24:37.114Z,3.77
2018-05-25T15:27:06.336Z,4.13
2018-05-25T15:29:35.508Z,2.97
2018-05-25T15:32:04.688Z,6.97
2018-05-25T15:34:33.779Z,7.57
2018-05-25T15:37:02.918Z,5.10
2018-05-25T15:39:32.045Z,3.07
2018-05-25T15:42:00.873Z,2.10
2018-05-25T15:44:29.772Z,4.40
2018-05-25T15:46:58.588Z,9.93
2018-05-25T15:49:27.460Z,2.43
2018-05-25T15:51:56.590Z,4.40
2018-05-25T15:54:25.903Z,3.73
2018-05-25T15:56:55.029Z,3.10
2018-05-25T15:59:24.182Z,2.60
2018-05-25T16:01:53.308Z,15.70
2018-05-25T16:04:22.457Z,30.80
2018-05-25T16:06:51.640Z,3.03
2018-05-25T16:09:20.800Z,5.70
2018-05-25T16:11:49.913Z,8.97
2018-05-25T16:14:19.089Z,6.07
2018-05-25T16:16:48.222Z,3.30
2018-05-25T16:19:17.396Z,5.00
2018-05-25T16:21:46.537Z,7.30
2018-05-25T16:24:15.639Z,4.00
2018-05-25T16:26:44.808Z,4.00
2018-05-25T16:29:13.943Z,2.40
2018-05-25T16:31:43.102Z,5.20
2018-05-25T16:34:12.222Z,3.50
2018-05-25T16:36:41.411Z,2.67
2018-05-25T16:39:10.644Z,4.30
2018-05-25T16:41:39.761Z,2.83
2018-05-25T16:44:08.876Z,2.77
2018-05-25T16:46:38.030Z,4.00
2018-05-25T16:49:07.145Z,3.40
2018-05-25T16:51:36.288Z,2.30
2018-05-25T16:54:05.405Z,2.57
2018-05-25T16:56:34.550Z,5.50
2018-05-25T16:59:03.735Z,3.40
2018-05-25T17:01:32.872Z,8.10
2018-05-25T17:04:01.991Z,6.30
2018-05-25T17:06:31.121Z,4.57
2018-05-25T17:09:00.298Z,22.13
2018-05-25T17:11:29.427Z,3.60
2018-05-25T17:13:58.628Z,4.93
2018-05-25T17:19:03.965Z,9.23
2018-05-25T17:21:33.109Z,7.67
2018-05-25T17:24:02.364Z,4.93
2018-05-25T17:26:31.514Z,3.40
2018-05-25T17:29:00.651Z,2.73
2018-05-25T17:31:29.809Z,2.37
2018-05-25T17:33:58.957Z,5.40
2018-05-25T17:36:28.140Z,5.63
2018-05-25T17:38:57.251Z,4.40
2018-05-25T17:41:26.380Z,6.27
2018-05-25T17:43:55.561Z,5.93
2018-05-25T17:46:24.421Z,19.47
2018-05-25T17:48:53.241Z,4.40
2018-05-25T17:51:22.112Z,4.00
2018-05-25T17:53:50.950Z,18.40
2018-05-25T17:56:19.843Z,11.07
2018-05-25T17:58:48.699Z,81.27
2018-05-25T18:01:17.537Z,13.37
2018-05-25T18:03:46.421Z,20.70
2018-05-25T18:06:15.237Z,5.73
2018-05-25T18:08:44.083Z,6.47
2018-05-25T18:11:12.949Z,16.43
2018-05-25T18:13:41.833Z,11.10
2018-05-25T18:16:10.635Z,9.17
2018-05-25T18:18:39.484Z,5.97
2018-05-25T18:21:08.650Z,27.17
2018-05-25T18:23:37.792Z,23.00
2018-05-25T18:26:06.877Z,11.60
2018-05-25T18:28:36.038Z,12.07
2018-05-25T18:31:04.977Z,9.47
2018-05-25T18:33:33.917Z,6.87
2018-05-25T18:36:02.840Z,8.03
2018-05-25T18:38:31.912Z,10.17
2018-05-25T18:41:00.752Z,8.07
2018-05-25T18:43:29.657Z,6.70
2018-05-25T18:45:58.793Z,8.67
2018-05-25T18:48:27.962Z,6.80
2018-05-25T18:50:56.764Z,6.90
2018-05-25T18:53:25.931Z,6.80
2018-05-25T18:55:55.087Z,7.10
2018-05-25T18:58:24.260Z,7.53
2018-05-25T19:00:53.413Z,7.47
2018-05-25T19:03:22.558Z,7.50
2018-05-25T19:05:51.657Z,8.93
2018-05-25T19:08:20.557Z,8.53
2018-05-25T19:10:49.730Z,9.23
2018-05-25T19:13:18.622Z,9.97
2018-05-25T19:15:47.489Z,10.47
2018-05-25T19:18:16.316Z,6.67
2018-05-25T19:20:45.187Z,8.20
2018-05-25T19:23:14.319Z,10.30
2018-05-25T19:25:43.259Z,15.73
2018-05-25T19:28:12.130Z,14.37
2018-05-25T19:30:41.003Z,14.97
2018-05-25T19:33:09.916Z,13.87
2018-05-25T19:35:38.741Z,44.83
2018-05-25T19:38:07.608Z,12.67
2018-05-25T19:40:36.504Z,15.10
2018-05-25T19:43:05.390Z,41.63
2018-05-25T19:45:34.297Z,18.30
2018-05-25T19:48:03.155Z,25.73
2018-05-25T19:50:32.029Z,33.47
2018-05-25T19:53:00.891Z,10.47
2018-05-25T19:55:29.716Z,33.93
2018-05-25T19:57:58.592Z,23.90
2018-05-25T20:00:27.437Z,24.13
2018-05-25T20:02:56.626Z,19.90
2018-05-25T20:05:25.479Z,12.37
2018-05-25T20:07:54.672Z,23.03
2018-05-25T20:10:23.994Z,63.60
2018-05-25T20:12:53.156Z,58.33
2018-05-25T20:15:22.009Z,66.17
2018-05-25T20:17:51.156Z,25.70
2018-05-25T20:20:19.985Z,35.20
2018-05-25T20:22:48.842Z,40.93
2018-05-25T20:25:17.694Z,12.63
2018-05-25T20:27:46.886Z,13.37
2018-05-25T20:30:16.004Z,21.10
2018-05-25T20:32:45.214Z,36.87
2018-05-25T20:35:14.360Z,31.87
2018-05-25T20:37:43.528Z,44.57
2018-05-25T20:40:12.710Z,36.27
2018-05-25T20:42:41.911Z,20.77
2018-05-25T20:45:11.069Z,13.97
2018-05-25T20:47:39.929Z,12.83
2018-05-25T20:50:08.794Z,17.67
2018-05-25T20:52:38.325Z,13.30
2018-05-25T20:55:07.503Z,13.67
2018-05-25T20:57:36.339Z,39.83
2018-05-25T21:00:05.180Z,26.17
2018-05-25T21:02:34.038Z,60.97
2018-05-25T21:05:02.883Z,49.10
2018-05-25T21:07:31.707Z,17.10
2018-05-25T21:10:00.819Z,31.40
2018-05-25T21:12:29.648Z,27.73
2018-05-25T21:14:58.534Z,15.27
2018-05-25T21:17:27.405Z,15.43
2018-05-25T21:19:56.271Z,17.83
2018-05-25T21:22:25.166Z,50.93
2018-05-25T21:24:54.616Z,26.43
2018-05-25T21:27:23.545Z,44.60
2018-05-25T21:29:52.387Z,45.17
2018-05-25T21:32:21.294Z,109.53
2018-05-25T21:34:50.138Z,273.83
2018-05-25T21:37:18.989Z,358.93
2018-05-25T21:39:48.130Z,252.13
2018-05-25T21:42:17.314Z,47.50
2018-05-25T21:44:46.440Z,44.53
2018-05-25T21:47:15.640Z,25.10
2018-05-25T21:49:44.688Z,17.87
2018-05-25T21:52:13.549Z,14.97
2018-05-25T21:54:42.359Z,56.63
2018-05-25T21:57:11.233Z,108.57
2018-05-25T21:59:40.129Z,124.77
2018-05-25T22:02:08.969Z,28.50
2018-05-25T22:04:37.830Z,41.40
2018-05-25T22:07:06.663Z,48.77
2018-05-25T22:09:35.514Z,50.10
2018-05-25T22:12:04.368Z,11.63
2018-05-25T22:14:33.199Z,31.53
2018-05-25T22:17:02.053Z,15.63
2018-05-25T22:19:30.923Z,141.13
2018-05-25T22:21:59.768Z,110.00
2018-05-25T22:24:28.617Z,18.40
2018-05-25T22:26:57.481Z,15.17
2018-05-25T22:29:26.316Z,48.03
2018-05-25T22:31:55.216Z,39.70
2018-05-25T22:34:24.023Z,63.23
2018-05-25T22:36:52.969Z,77.43
2018-05-25T22:39:22.087Z,32.07
2018-05-25T22:41:55.989Z,24.83
2018-05-25T22:44:31.071Z,18.27
2018-05-25T22:47:06.007Z,14.50
2018-05-25T22:49:40.912Z,33.03
2018-05-25T22:52:30.711Z,45.60
2018-05-25T22:54:59.529Z,25.20
2018-05-25T22:57:28.380Z,14.87
2018-05-25T22:59:57.242Z,19.67
2018-05-25T23:02:26.122Z,14.03
2018-05-25T23:04:54.980Z,13.53
2018-05-25T23:07:24.124Z,14.40
2018-05-25T23:09:52.961Z,18.37
2018-05-25T23:12:21.772Z,17.30
2018-05-25T23:14:50.909Z,31.17
2018-05-25T23:17:20.041Z,48.17
2018-05-25T23:19:49.229Z,40.13
2018-05-25T23:22:18.203Z,55.43
2018-05-25T23:24:47.356Z,33.67
2018-05-25T23:27:16.416Z,37.07
2018-05-25T23:29:45.252Z,18.97
2018-05-25T23:32:14.379Z,20.23
2018-05-25T23:34:43.249Z,16.80
2018-05-25T23:37:12.088Z,15.50
2018-05-25T23:39:40.925Z,15.83
2018-05-25T23:42:09.875Z,15.40
2018-05-25T23:44:38.749Z,17.83
2018-05-25T23:47:07.595Z,20.57
2018-05-25T23:49:36.476Z,20.20
2018-05-25T23:52:05.584Z,17.60
2018-05-25T23:54:34.714Z,16.83
2018-05-25T23:57:03.816Z,17.40
2018-05-25T23:59:32.809Z,20.17
